createdAt,value
2018-09-17T00:00:12.732Z,82.80
2018-09-17T00:03:18.111Z,82.70
2018-09-17T00:06:23.485Z,82.60
2018-09-17T00:09:28.902Z,82.70
2018-09-17T00:12:34.250Z,82.80
2018-09-17T00:15:39.630Z,82.90
2018-09-17T00:18:45.070Z,83.10
2018-09-17T00:21:50.425Z,83.10
2018-09-17T00:24:56.175Z,83.40
2018-09-17T00:28:01.565Z,83.60
2018-09-17T00:31:07.317Z,83.50
2018-09-17T00:34:12.720Z,83.40
2018-09-17T00:37:18.075Z,83.40
2018-09-17T00:40:23.441Z,83.60
2018-09-17T00:43:28.801Z,83.80
2018-09-17T00:46:34.174Z,83.80
2018-09-17T00:49:39.946Z,83.70
2018-09-17T00:52:45.478Z,83.70
2018-09-17T00:55:50.845Z,84.00
2018-09-17T00:58:56.278Z,84.30
2018-09-17T01:02:01.647Z,84.70
2018-09-17T01:05:07.928Z,85.10
2018-09-17T01:08:13.289Z,85.30
2018-09-17T01:11:19.037Z,85.60
2018-09-17T01:14:24.431Z,85.80
2018-09-17T01:17:29.773Z,85.90
2018-09-17T01:20:35.149Z,85.90
2018-09-17T01:23:40.504Z,85.60
2018-09-17T01:26:46.449Z,85.50
2018-09-17T01:29:51.905Z,85.50
2018-09-17T01:32:57.252Z,85.50
2018-09-17T01:36:02.632Z,85.60
2018-09-17T01:39:10.577Z,85.70
2018-09-17T01:42:15.972Z,85.70
2018-09-17T01:45:21.461Z,85.60
2018-09-17T01:48:26.918Z,85.80
2018-09-17T01:51:32.290Z,86.10
2018-09-17T01:54:37.686Z,85.80
2018-09-17T01:57:43.078Z,85.80
2018-09-17T02:00:48.832Z,85.70
2018-09-17T02:03:54.185Z,85.80
2018-09-17T02:06:59.566Z,86.00
2018-09-17T02:10:05.305Z,86.00
2018-09-17T02:13:11.145Z,85.80
2018-09-17T02:16:16.704Z,85.50
2018-09-17T02:19:22.146Z,85.60
2018-09-17T02:22:27.521Z,85.70
2018-09-17T02:25:32.906Z,86.10
2018-09-17T02:28:38.354Z,86.10
2018-09-17T02:31:43.757Z,86.10
2018-09-17T02:34:49.613Z,85.90
2018-09-17T02:37:55.047Z,86.10
2018-09-17T02:41:00.425Z,86.20
2018-09-17T02:44:05.801Z,86.40
2018-09-17T02:47:11.163Z,86.40
2018-09-17T02:50:16.638Z,86.40
2018-09-17T02:53:22.042Z,86.60
2018-09-17T02:56:27.597Z,86.40
2018-09-17T02:59:33.087Z,86.40
2018-09-17T03:02:38.743Z,86.50
2018-09-17T03:05:44.134Z,86.50
2018-09-17T03:08:49.612Z,87.00
2018-09-17T03:11:55.052Z,86.80
2018-09-17T03:15:11.201Z,86.80
2018-09-17T03:18:17.865Z,86.90
2018-09-17T03:21:23.418Z,86.70
2018-09-17T03:24:28.783Z,86.60
2018-09-17T03:27:34.439Z,86.50
2018-09-17T03:30:40.035Z,86.60
2018-09-17T03:33:45.454Z,86.50
2018-09-17T03:36:51.059Z,86.70
2018-09-17T03:39:58.228Z,86.60
2018-09-17T03:43:03.833Z,86.70
2018-09-17T03:46:09.224Z,86.10
2018-09-17T03:49:14.869Z,86.70
2018-09-17T03:52:20.250Z,87.20
2018-09-17T03:55:25.606Z,87.30
2018-09-17T03:58:31.069Z,87.30
2018-09-17T04:01:36.450Z,87.20
2018-09-17T04:04:41.797Z,87.10
2018-09-17T04:07:47.182Z,87.00
2018-09-17T04:10:52.558Z,87.30
2018-09-17T04:13:58.419Z,86.60
2018-09-17T04:17:03.794Z,87.40
2018-09-17T04:20:09.186Z,87.50
2018-09-17T04:23:14.562Z,88.00
2018-09-17T04:26:19.930Z,88.40
2018-09-17T04:29:25.347Z,88.20
2018-09-17T04:32:30.753Z,88.00
2018-09-17T04:35:36.111Z,88.00
2018-09-17T04:38:41.579Z,88.50
2018-09-17T04:41:46.954Z,88.50
2018-09-17T04:44:52.315Z,88.70
2018-09-17T04:47:57.731Z,88.70
2018-09-17T04:51:03.120Z,88.50
2018-09-17T04:54:08.853Z,88.50
2018-09-17T04:57:14.391Z,88.80
2018-09-17T05:00:19.898Z,88.80
2018-09-17T05:03:25.266Z,88.50
2018-09-17T05:06:30.613Z,88.50
2018-09-17T05:09:36.470Z,88.20
2018-09-17T05:12:41.860Z,88.70
2018-09-17T05:15:47.216Z,88.60
2018-09-17T05:18:52.618Z,88.60
2018-09-17T05:21:58.138Z,88.60
2018-09-17T05:25:03.573Z,88.30
2018-09-17T05:28:09.152Z,88.20
2018-09-17T05:31:14.558Z,87.80
2018-09-17T05:34:19.957Z,87.80
2018-09-17T05:37:25.339Z,88.00
2018-09-17T05:40:30.929Z,88.10
2018-09-17T05:43:36.293Z,88.10
2018-09-17T05:46:41.642Z,88.20
2018-09-17T05:49:47.706Z,89.00
2018-09-17T05:52:53.079Z,89.20
2018-09-17T05:55:58.466Z,89.90
2018-09-17T05:59:03.977Z,89.50
2018-09-17T06:02:09.661Z,89.30
2018-09-17T06:05:15.965Z,89.50
2018-09-17T06:08:21.438Z,89.70
2018-09-17T06:11:26.801Z,90.10
2018-09-17T06:14:32.292Z,89.80
2018-09-17T06:17:38.295Z,89.70
2018-09-17T06:20:43.823Z,89.80
2018-09-17T06:23:49.185Z,89.80
2018-09-17T06:26:54.559Z,89.50
2018-09-17T06:30:00.315Z,89.40
2018-09-17T06:33:06.154Z,89.10
2018-09-17T06:36:11.808Z,88.80
2018-09-17T06:39:17.846Z,87.70
2018-09-17T06:42:23.332Z,88.30
2018-09-17T06:45:28.802Z,87.90
2018-09-17T06:48:34.205Z,87.50
2018-09-17T06:51:39.565Z,85.60
2018-09-17T06:54:44.938Z,84.20
2018-09-17T06:57:50.354Z,84.40
2018-09-17T07:00:55.730Z,84.60
2018-09-17T07:04:01.133Z,84.90
2018-09-17T07:07:06.886Z,83.60
2018-09-17T07:10:12.345Z,83.60
2018-09-17T07:13:17.706Z,83.30
2018-09-17T07:16:23.112Z,82.40
2018-09-17T07:19:28.890Z,81.60
2018-09-17T07:22:34.253Z,81.00
2018-09-17T07:25:39.634Z,80.80
2018-09-17T07:28:45.643Z,80.30
2018-09-17T07:31:51.025Z,78.60
2018-09-17T07:34:56.401Z,79.00
2018-09-17T07:38:01.787Z,77.50
2018-09-17T07:41:07.266Z,77.50
2018-09-17T07:44:12.646Z,76.80
2018-09-17T07:47:18.030Z,77.90
2018-09-17T07:50:23.396Z,77.80
2018-09-17T07:53:28.746Z,76.80
2018-09-17T07:56:34.127Z,76.80
2018-09-17T07:59:39.494Z,75.60
2018-09-17T08:02:44.850Z,73.80
2018-09-17T08:05:50.418Z,72.50
2018-09-17T08:08:55.818Z,72.10
2018-09-17T08:12:01.530Z,72.40
2018-09-17T08:15:07.900Z,71.90
2018-09-17T08:18:13.339Z,70.40
2018-09-17T08:21:18.809Z,70.10
2018-09-17T08:24:24.217Z,67.60
2018-09-17T08:27:29.974Z,64.30
2018-09-17T08:30:35.408Z,62.30
2018-09-17T08:33:40.884Z,60.30
2018-09-17T08:36:47.031Z,59.60
2018-09-17T08:39:52.406Z,58.70
2018-09-17T08:42:57.798Z,58.00
2018-09-17T08:46:03.326Z,57.10
2018-09-17T08:49:08.935Z,57.80
2018-09-17T08:52:14.451Z,57.60
2018-09-17T08:55:25.156Z,57.30
2018-09-17T08:58:39.581Z,57.60
2018-09-17T09:01:50.087Z,57.40
2018-09-17T09:04:56.245Z,58.40
2018-09-17T09:08:01.773Z,58.50
2018-09-17T09:11:12.366Z,58.00
2018-09-17T09:14:33.057Z,58.00
2018-09-17T09:17:38.442Z,57.90
2018-09-17T09:20:43.820Z,57.60
2018-09-17T09:23:49.182Z,58.40
2018-09-17T09:26:54.545Z,58.10
2018-09-17T09:29:59.931Z,57.70
2018-09-17T09:33:05.370Z,57.20
2018-09-17T09:36:10.743Z,57.00
2018-09-17T09:39:16.193Z,57.10
2018-09-17T09:42:21.769Z,57.30
2018-09-17T09:45:27.298Z,56.40
2018-09-17T09:48:32.669Z,56.90
2018-09-17T09:51:38.041Z,56.20
2018-09-17T09:54:43.399Z,56.00
2018-09-17T09:57:48.802Z,55.80
2018-09-17T10:00:59.401Z,55.80
2018-09-17T10:04:10.277Z,55.00
2018-09-17T10:07:15.674Z,54.90
2018-09-17T10:10:26.415Z,55.20
2018-09-17T10:13:36.973Z,54.80
2018-09-17T10:16:46.472Z,54.70
2018-09-17T10:19:52.854Z,54.20
2018-09-17T10:22:58.857Z,53.90
2018-09-17T10:26:04.199Z,53.60
2018-09-17T10:29:09.608Z,54.20
2018-09-17T10:32:15.658Z,53.00
2018-09-17T10:35:21.041Z,52.60
2018-09-17T10:38:26.417Z,52.10
2018-09-17T10:41:31.761Z,51.80
2018-09-17T10:44:37.146Z,51.60
2018-09-17T10:47:42.535Z,51.10
2018-09-17T10:50:48.000Z,50.40
2018-09-17T10:53:53.393Z,49.60
2018-09-17T10:56:58.747Z,48.80
2018-09-17T11:00:04.354Z,49.10
2018-09-17T11:03:09.725Z,48.30
2018-09-17T11:06:15.081Z,48.60
2018-09-17T11:09:20.527Z,47.50
2018-09-17T11:12:26.273Z,47.40
2018-09-17T11:15:36.758Z,45.90
2018-09-17T11:18:42.179Z,45.40
2018-09-17T11:21:47.538Z,45.90
2018-09-17T11:24:53.067Z,45.40
2018-09-17T11:27:58.430Z,44.40
2018-09-17T11:31:03.896Z,43.20
2018-09-17T11:34:09.288Z,43.40
2018-09-17T11:37:14.650Z,42.80
2018-09-17T11:40:20.085Z,42.10
2018-09-17T11:43:25.612Z,41.20
2018-09-17T11:46:31.653Z,40.60
2018-09-17T11:49:37.155Z,40.20
2018-09-17T11:52:42.511Z,38.50
2018-09-17T11:55:47.893Z,36.80
2018-09-17T11:58:53.382Z,36.20
2018-09-17T12:02:05.449Z,37.10
2018-09-17T12:05:11.070Z,35.90
2018-09-17T12:08:18.321Z,35.30
2018-09-17T12:11:23.669Z,35.90
2018-09-17T12:14:29.277Z,33.50
2018-09-17T12:17:35.100Z,32.70
2018-09-17T12:20:40.573Z,30.80
2018-09-17T12:23:45.942Z,30.70
2018-09-17T12:26:52.106Z,30.50
2018-09-17T12:29:57.522Z,29.80
2018-09-17T12:33:03.106Z,29.40
2018-09-17T12:36:08.484Z,29.60
2018-09-17T12:39:13.937Z,29.80
2018-09-17T12:42:19.286Z,30.10
2018-09-17T12:45:25.692Z,29.60
2018-09-17T12:48:31.057Z,29.50
2018-09-17T12:51:36.438Z,29.70
2018-09-17T12:54:41.841Z,30.50
2018-09-17T12:57:47.264Z,30.50
2018-09-17T13:00:53.433Z,29.50
2018-09-17T13:03:58.834Z,29.40
2018-09-17T13:07:04.278Z,28.60
2018-09-17T13:10:10.450Z,28.60
2018-09-17T13:13:15.862Z,28.00
2018-09-17T13:16:21.262Z,28.00
2018-09-17T13:19:26.640Z,27.80
2018-09-17T13:22:32.009Z,28.10
2018-09-17T13:25:37.382Z,29.20
2018-09-17T13:28:42.763Z,29.80
2018-09-17T13:31:48.847Z,30.00
2018-09-17T13:34:54.445Z,30.10
2018-09-17T13:38:00.045Z,32.00
2018-09-17T13:41:05.440Z,32.50
2018-09-17T13:44:10.893Z,32.80
2018-09-17T13:47:16.430Z,33.80
2018-09-17T13:50:21.822Z,33.60
2018-09-17T13:53:27.267Z,33.10
2018-09-17T13:56:32.825Z,34.40
2018-09-17T13:59:38.285Z,34.50
2018-09-17T14:02:43.672Z,34.60
2018-09-17T14:05:49.049Z,33.90
2018-09-17T14:08:54.476Z,34.30
2018-09-17T14:11:59.871Z,35.40
2018-09-17T14:15:05.723Z,34.40
2018-09-17T14:18:12.858Z,34.50
2018-09-17T14:21:18.315Z,35.00
2018-09-17T14:24:23.865Z,35.50
2018-09-17T14:27:29.367Z,35.20
2018-09-17T14:30:34.961Z,34.70
2018-09-17T14:33:41.606Z,35.90
2018-09-17T14:36:46.994Z,35.30
2018-09-17T14:39:52.413Z,35.60
2018-09-17T14:42:58.006Z,35.00
2018-09-17T14:46:03.730Z,35.60
2018-09-17T14:49:09.367Z,35.90
2018-09-17T14:52:15.222Z,35.90
2018-09-17T14:55:20.838Z,36.00
2018-09-17T14:58:26.347Z,37.10
2018-09-17T15:01:31.934Z,35.70
2018-09-17T15:04:37.459Z,36.20
2018-09-17T15:07:43.074Z,36.90
2018-09-17T15:10:48.738Z,37.10
2018-09-17T15:13:54.487Z,36.90
2018-09-17T15:16:59.896Z,37.70
2018-09-17T15:20:05.313Z,37.40
2018-09-17T15:23:10.706Z,37.40
2018-09-17T15:26:16.248Z,37.70
2018-09-17T15:29:21.789Z,36.90
2018-09-17T15:32:27.278Z,37.10
2018-09-17T15:35:32.820Z,38.40
2018-09-17T15:38:38.218Z,37.30
2018-09-17T15:41:43.607Z,37.80
2018-09-17T15:44:48.970Z,38.10
2018-09-17T15:47:54.389Z,39.60
2018-09-17T15:50:59.857Z,38.00
2018-09-17T15:54:05.238Z,37.70
2018-09-17T15:57:10.628Z,37.60
2018-09-17T16:00:16.019Z,37.50
2018-09-17T16:03:22.386Z,38.20
2018-09-17T16:06:27.758Z,39.40
2018-09-17T16:09:33.201Z,38.30
2018-09-17T16:12:38.577Z,38.90
2018-09-17T16:15:44.050Z,39.20
2018-09-17T16:18:49.900Z,40.00
2018-09-17T16:21:55.274Z,40.60
2018-09-17T16:25:00.682Z,40.30
2018-09-17T16:28:06.218Z,41.20
2018-09-17T16:31:11.609Z,40.50
2018-09-17T16:34:17.062Z,41.70
2018-09-17T16:37:22.433Z,41.10
2018-09-17T16:40:27.829Z,40.70
2018-09-17T16:43:33.195Z,43.00
2018-09-17T16:46:38.594Z,44.40
2018-09-17T16:49:43.986Z,45.50
2018-09-17T16:52:49.381Z,46.30
2018-09-17T16:55:54.936Z,46.60
2018-09-17T16:59:00.425Z,46.70
2018-09-17T17:02:05.951Z,47.30
2018-09-17T17:05:11.664Z,48.00
2018-09-17T17:08:17.254Z,48.50
2018-09-17T17:11:22.791Z,49.70
2018-09-17T17:14:28.290Z,49.70
2018-09-17T17:17:33.682Z,49.80
2018-09-17T17:20:39.786Z,50.20
2018-09-17T17:23:45.373Z,50.60
2018-09-17T17:26:50.729Z,51.80
2018-09-17T17:29:56.789Z,52.90
2018-09-17T17:33:02.233Z,53.10
2018-09-17T17:36:08.038Z,53.60
2018-09-17T17:39:13.530Z,53.20
2018-09-17T17:42:19.998Z,53.80
2018-09-17T17:45:25.390Z,54.60
2018-09-17T17:48:30.911Z,56.00
2018-09-17T17:51:36.269Z,55.90
2018-09-17T17:54:41.707Z,56.30
2018-09-17T17:57:47.927Z,56.00
2018-09-17T18:00:53.536Z,55.90
2018-09-17T18:03:59.286Z,56.40
2018-09-17T18:07:05.046Z,56.90
2018-09-17T18:10:10.416Z,57.20
2018-09-17T18:13:16.431Z,57.60
2018-09-17T18:16:25.854Z,58.00
2018-09-17T18:19:31.333Z,58.70
2018-09-17T18:22:36.898Z,59.60
2018-09-17T18:25:42.294Z,59.80
2018-09-17T18:28:47.817Z,59.80
2018-09-17T18:31:53.386Z,59.50
2018-09-17T18:34:58.762Z,59.90
2018-09-17T18:38:04.149Z,60.30
2018-09-17T18:41:09.609Z,61.00
2018-09-17T18:44:15.214Z,61.40
2018-09-17T18:47:20.578Z,61.70
2018-09-17T18:50:26.127Z,62.30
2018-09-17T18:53:31.498Z,62.60
2018-09-17T18:56:36.901Z,62.70
2018-09-17T18:59:42.360Z,63.00
2018-09-17T19:02:47.772Z,64.40
2018-09-17T19:05:53.494Z,64.30
2018-09-17T19:08:59.040Z,65.00
2018-09-17T19:12:04.762Z,65.80
2018-09-17T19:15:16.364Z,66.40
2018-09-17T19:18:22.020Z,66.70
2018-09-17T19:21:32.851Z,66.80
2018-09-17T19:24:38.410Z,66.90
2018-09-17T19:27:49.151Z,67.10
2018-09-17T19:30:54.710Z,67.20
2018-09-17T19:34:00.092Z,67.20
2018-09-17T19:37:10.853Z,67.80
2018-09-17T19:40:17.775Z,68.00
2018-09-17T19:43:23.411Z,68.50
2018-09-17T19:46:28.847Z,68.60
2018-09-17T19:49:34.328Z,68.80
2018-09-17T19:52:39.890Z,69.20
2018-09-17T19:55:46.297Z,69.50
2018-09-17T19:58:57.177Z,69.80
2018-09-17T20:02:02.570Z,70.50
2018-09-17T20:05:13.606Z,71.00
2018-09-17T20:08:19.125Z,71.70
2018-09-17T20:11:24.745Z,71.80
2018-09-17T20:14:30.117Z,71.70
2018-09-17T20:17:35.830Z,71.70
2018-09-17T20:20:41.221Z,72.50
2018-09-17T20:23:46.606Z,73.60
2018-09-17T20:26:52.490Z,73.90
2018-09-17T20:29:58.048Z,74.00
2018-09-17T20:33:05.252Z,73.90
2018-09-17T20:36:15.657Z,73.90
2018-09-17T20:39:23.201Z,74.40
2018-09-17T20:42:28.574Z,74.60
2018-09-17T20:45:35.266Z,74.20
2018-09-17T20:48:52.260Z,74.30
2018-09-17T20:51:58.541Z,74.30
2018-09-17T20:55:03.925Z,74.60
2018-09-17T20:58:09.861Z,74.70
2018-09-17T21:01:15.417Z,75.10
2018-09-17T21:04:20.934Z,75.30
2018-09-17T21:07:26.653Z,75.80
2018-09-17T21:10:32.134Z,75.30
2018-09-17T21:13:37.518Z,75.50
2018-09-17T21:16:42.935Z,75.90
2018-09-17T21:19:48.386Z,75.60
2018-09-17T21:22:53.766Z,75.80
2018-09-17T21:25:59.133Z,75.90
2018-09-17T21:29:04.645Z,76.00
2018-09-17T21:32:10.033Z,77.10
2018-09-17T21:35:15.462Z,77.50
2018-09-17T21:38:21.108Z,77.80
2018-09-17T21:41:26.577Z,77.90
2018-09-17T21:44:31.959Z,77.40
2018-09-17T21:47:37.545Z,77.50
2018-09-17T21:50:42.998Z,77.30
2018-09-17T21:53:48.402Z,76.90
2018-09-17T21:56:53.761Z,76.70
2018-09-17T21:59:59.720Z,77.10
2018-09-17T22:03:05.647Z,78.00
2018-09-17T22:06:10.997Z,77.20
2018-09-17T22:09:16.834Z,76.60
2018-09-17T22:12:22.653Z,76.30
2018-09-17T22:15:28.353Z,76.20
2018-09-17T22:18:33.757Z,76.10
2018-09-17T22:21:39.113Z,76.30
2018-09-17T22:24:44.504Z,76.40
2018-09-17T22:27:49.905Z,76.30
2018-09-17T22:30:55.290Z,76.60
2018-09-17T22:34:00.695Z,77.00
2018-09-17T22:37:06.623Z,76.50
2018-09-17T22:40:12.150Z,76.10
2018-09-17T22:43:17.509Z,77.00
2018-09-17T22:46:22.969Z,77.20
2018-09-17T22:49:28.438Z,77.50
2018-09-17T22:52:33.834Z,77.30
2018-09-17T22:55:39.186Z,76.90
2018-09-17T22:58:45.305Z,76.90
2018-09-17T23:01:50.663Z,76.40
2018-09-17T23:04:56.034Z,76.20
2018-09-17T23:08:01.486Z,76.30
2018-09-17T23:11:07.385Z,76.20
2018-09-17T23:14:12.741Z,76.30
2018-09-17T23:17:18.199Z,76.50
2018-09-17T23:20:23.564Z,75.90
2018-09-17T23:23:29.351Z,76.20
2018-09-17T23:26:34.713Z,75.90
2018-09-17T23:29:40.194Z,76.40
2018-09-17T23:32:45.676Z,75.80
2018-09-17T23:35:51.149Z,75.60
2018-09-17T23:38:56.702Z,75.40
2018-09-17T23:42:02.062Z,75.60
2018-09-17T23:45:07.590Z,76.00
2018-09-17T23:48:13.173Z,76.70
2018-09-17T23:51:18.882Z,76.70
2018-09-17T23:54:24.282Z,77.30
2018-09-17T23:57:29.774Z,78.10
